sensor_id;sensor_type;location;lat;lon;timestamp;P1;durP1;ratioP1;P2;durP2;ratioP2
33104;SDS011;19476;51.448;6.674;2023-04-01T00:01:40;1.40;;;0.40;;
33104;SDS011;19476;51.448;6.674;2023-04-01T00:04:05;2.92;;;0.70;;
33104;SDS011;19476;51.448;6.674;2023-04-01T00:06:31;1.75;;;0.55;;
33104;SDS011;19476;51.448;6.674;2023-04-01T00:08:57;1.25;;;0.40;;
33104;SDS011;19476;51.448;6.674;2023-04-01T00:11:22;1.98;;;0.45;;
33104;SDS011;19476;51.448;6.674;2023-04-01T00:13:48;1.02;;;0.43;;
33104;SDS011;19476;51.448;6.674;2023-04-01T00:16:14;2.50;;;0.50;;
33104;SDS011;19476;51.448;6.674;2023-04-01T00:18:40;3.08;;;0.50;;
33104;SDS011;19476;51.448;6.674;2023-04-01T00:21:06;2.35;;;0.38;;
33104;SDS011;19476;51.448;6.674;2023-04-01T00:23:32;1.70;;;0.55;;
33104;SDS011;19476;51.448;6.674;2023-04-01T00:25:59;3.17;;;0.63;;
33104;SDS011;19476;51.448;6.674;2023-04-01T00:28:26;1.40;;;0.30;;
33104;SDS011;19476;51.448;6.674;2023-04-01T00:30:53;1.30;;;0.40;;
33104;SDS011;19476;51.448;6.674;2023-04-01T00:33:18;1.33;;;0.35;;
33104;SDS011;19476;51.448;6.674;2023-04-01T00:35:45;1.27;;;0.30;;
33104;SDS011;19476;51.448;6.674;2023-04-01T00:38:11;2.92;;;0.35;;
33104;SDS011;19476;51.448;6.674;2023-04-01T00:40:42;2.05;;;0.30;;
33104;SDS011;19476;51.448;6.674;2023-04-01T00:43:17;1.85;;;0.30;;
33104;SDS011;19476;51.448;6.674;2023-04-01T00:45:46;1.85;;;0.52;;
33104;SDS011;19476;51.448;6.674;2023-04-01T00:48:26;0.98;;;0.22;;
33104;SDS011;19476;51.448;6.674;2023-04-01T00:51:02;4.38;;;0.60;;
33104;SDS011;19476;51.448;6.674;2023-04-01T00:53:33;0.90;;;0.20;;
33104;SDS011;19476;51.448;6.674;2023-04-01T00:56:05;1.30;;;0.40;;
33104;SDS011;19476;51.448;6.674;2023-04-01T00:58:38;1.95;;;0.32;;
33104;SDS011;19476;51.448;6.674;2023-04-01T01:01:08;1.33;;;0.50;;
33104;SDS011;19476;51.448;6.674;2023-04-01T01:03:35;0.70;;;0.25;;
33104;SDS011;19476;51.448;6.674;2023-04-01T01:06:09;0.28;;;0.22;;
33104;SDS011;19476;51.448;6.674;2023-04-01T01:09:10;1.02;;;0.20;;
33104;SDS011;19476;51.448;6.674;2023-04-01T01:12:01;1.05;;;0.30;;
33104;SDS011;19476;51.448;6.674;2023-04-01T01:28:07;1.75;;;0.40;;
33104;SDS011;19476;51.448;6.674;2023-04-01T01:35:47;0.80;;;0.30;;
33104;SDS011;19476;51.448;6.674;2023-04-01T01:38:19;1.23;;;0.30;;
33104;SDS011;19476;51.448;6.674;2023-04-01T01:40:48;2.92;;;0.77;;
33104;SDS011;19476;51.448;6.674;2023-04-01T01:43:19;2.25;;;0.30;;
33104;SDS011;19476;51.448;6.674;2023-04-01T01:45:50;0.80;;;0.20;;
33104;SDS011;19476;51.448;6.674;2023-04-01T01:48:20;1.13;;;0.30;;
33104;SDS011;19476;51.448;6.674;2023-04-01T01:50:48;1.60;;;0.30;;
33104;SDS011;19476;51.448;6.674;2023-04-01T01:53:15;0.50;;;0.10;;
33104;SDS011;19476;51.448;6.674;2023-04-01T01:55:42;0.52;;;0.30;;
33104;SDS011;19476;51.448;6.674;2023-04-01T02:00:35;0.28;;;0.17;;
33104;SDS011;19476;51.448;6.674;2023-04-01T02:03:02;0.98;;;0.20;;
33104;SDS011;19476;51.448;6.674;2023-04-01T02:05:29;1.30;;;0.30;;
33104;SDS011;19476;51.448;6.674;2023-04-01T02:08:03;0.93;;;0.20;;
33104;SDS011;19476;51.448;6.674;2023-04-01T02:10:37;1.83;;;0.38;;
33104;SDS011;19476;51.448;6.674;2023-04-01T02:13:18;0.70;;;0.25;;
33104;SDS011;19476;51.448;6.674;2023-04-01T02:15:51;1.95;;;0.30;;
33104;SDS011;19476;51.448;6.674;2023-04-01T02:18:21;1.33;;;0.30;;
33104;SDS011;19476;51.448;6.674;2023-04-01T02:20:47;2.45;;;0.22;;
33104;SDS011;19476;51.448;6.674;2023-04-01T02:23:14;1.77;;;0.20;;
33104;SDS011;19476;51.448;6.674;2023-04-01T02:25:40;0.93;;;0.40;;
33104;SDS011;19476;51.448;6.674;2023-04-01T02:28:08;0.90;;;0.25;;
33104;SDS011;19476;51.448;6.674;2023-04-01T02:30:35;1.48;;;0.30;;
33104;SDS011;19476;51.448;6.674;2023-04-01T02:33:03;1.92;;;0.20;;
33104;SDS011;19476;51.448;6.674;2023-04-01T02:35:32;1.15;;;0.20;;
33104;SDS011;19476;51.448;6.674;2023-04-01T02:38:02;0.40;;;0.20;;
33104;SDS011;19476;51.448;6.674;2023-04-01T02:40:29;1.08;;;0.30;;
33104;SDS011;19476;51.448;6.674;2023-04-01T02:42:54;2.58;;;0.68;;
33104;SDS011;19476;51.448;6.674;2023-04-01T02:45:20;0.17;;;0.10;;
33104;SDS011;19476;51.448;6.674;2023-04-01T02:47:46;1.45;;;0.32;;
33104;SDS011;19476;51.448;6.674;2023-04-01T02:50:11;0.30;;;0.10;;
33104;SDS011;19476;51.448;6.674;2023-04-01T02:52:37;0.90;;;0.20;;
33104;SDS011;19476;51.448;6.674;2023-04-01T02:55:03;0.73;;;0.20;;
33104;SDS011;19476;51.448;6.674;2023-04-01T02:57:29;0.57;;;0.20;;
33104;SDS011;19476;51.448;6.674;2023-04-01T02:59:55;0.68;;;0.30;;
33104;SDS011;19476;51.448;6.674;2023-04-01T03:02:21;2.15;;;0.30;;
33104;SDS011;19476;51.448;6.674;2023-04-01T03:04:46;0.57;;;0.30;;
33104;SDS011;19476;51.448;6.674;2023-04-01T03:07:12;0.52;;;0.20;;
33104;SDS011;19476;51.448;6.674;2023-04-01T03:09:38;0.75;;;0.40;;
33104;SDS011;19476;51.448;6.674;2023-04-01T03:12:05;0.38;;;0.17;;
33104;SDS011;19476;51.448;6.674;2023-04-01T03:14:31;2.33;;;0.57;;
33104;SDS011;19476;51.448;6.674;2023-04-01T03:16:57;0.85;;;0.40;;
33104;SDS011;19476;51.448;6.674;2023-04-01T03:19:22;0.90;;;0.30;;
33104;SDS011;19476;51.448;6.674;2023-04-01T03:21:48;1.35;;;0.50;;
33104;SDS011;19476;51.448;6.674;2023-04-01T03:24:14;1.23;;;0.30;;
33104;SDS011;19476;51.448;6.674;2023-04-01T03:26:39;0.85;;;0.30;;
33104;SDS011;19476;51.448;6.674;2023-04-01T03:29:05;0.93;;;0.25;;
33104;SDS011;19476;51.448;6.674;2023-04-01T03:31:31;1.52;;;0.52;;
33104;SDS011;19476;51.448;6.674;2023-04-01T03:33:57;1.02;;;0.52;;
33104;SDS011;19476;51.448;6.674;2023-04-01T03:36:22;0.95;;;0.30;;
33104;SDS011;19476;51.448;6.674;2023-04-01T03:38:48;0.75;;;0.30;;
33104;SDS011;19476;51.448;6.674;2023-04-01T03:41:14;2.25;;;0.30;;
33104;SDS011;19476;51.448;6.674;2023-04-01T03:43:42;0.88;;;0.30;;
33104;SDS011;19476;51.448;6.674;2023-04-01T03:46:08;1.08;;;0.40;;
33104;SDS011;19476;51.448;6.674;2023-04-01T03:48:34;0.85;;;0.30;;
33104;SDS011;19476;51.448;6.674;2023-04-01T03:51:00;1.42;;;0.30;;
33104;SDS011;19476;51.448;6.674;2023-04-01T03:53:25;1.73;;;0.35;;
33104;SDS011;19476;51.448;6.674;2023-04-01T03:55:52;0.80;;;0.30;;
33104;SDS011;19476;51.448;6.674;2023-04-01T03:58:18;0.57;;;0.22;;
33104;SDS011;19476;51.448;6.674;2023-04-01T04:00:44;1.38;;;0.52;;
33104;SDS011;19476;51.448;6.674;2023-04-01T04:03:11;0.40;;;0.20;;
33104;SDS011;19476;51.448;6.674;2023-04-01T04:05:36;0.82;;;0.40;;
33104;SDS011;19476;51.448;6.674;2023-04-01T04:08:02;1.38;;;0.47;;
33104;SDS011;19476;51.448;6.674;2023-04-01T04:10:28;1.27;;;0.43;;
33104;SDS011;19476;51.448;6.674;2023-04-01T04:12:54;1.90;;;0.50;;
33104;SDS011;19476;51.448;6.674;2023-04-01T04:15:20;0.52;;;0.40;;
33104;SDS011;19476;51.448;6.674;2023-04-01T04:17:46;1.88;;;0.30;;
33104;SDS011;19476;51.448;6.674;2023-04-01T04:20:12;0.55;;;0.40;;
33104;SDS011;19476;51.448;6.674;2023-04-01T04:22:38;0.73;;;0.30;;
33104;SDS011;19476;51.448;6.674;2023-04-01T04:25:04;1.23;;;0.43;;
33104;SDS011;19476;51.448;6.674;2023-04-01T04:27:30;0.88;;;0.32;;
33104;SDS011;19476;51.448;6.674;2023-04-01T04:29:56;1.95;;;0.30;;
33104;SDS011;19476;51.448;6.674;2023-04-01T04:32:22;0.65;;;0.40;;
33104;SDS011;19476;51.448;6.674;2023-04-01T04:34:47;0.57;;;0.30;;
33104;SDS011;19476;51.448;6.674;2023-04-01T04:37:13;1.60;;;0.52;;
33104;SDS011;19476;51.448;6.674;2023-04-01T04:39:39;2.13;;;0.55;;
33104;SDS011;19476;51.448;6.674;2023-04-01T04:42:05;1.13;;;0.40;;
33104;SDS011;19476;51.448;6.674;2023-04-01T04:44:31;1.58;;;0.80;;
33104;SDS011;19476;51.448;6.674;2023-04-01T04:46:56;2.20;;;0.57;;
33104;SDS011;19476;51.448;6.674;2023-04-01T04:49:22;1.70;;;0.63;;
33104;SDS011;19476;51.448;6.674;2023-04-01T04:51:48;0.88;;;0.40;;
33104;SDS011;19476;51.448;6.674;2023-04-01T04:54:13;2.05;;;0.50;;
33104;SDS011;19476;51.448;6.674;2023-04-01T04:56:39;1.20;;;0.63;;
33104;SDS011;19476;51.448;6.674;2023-04-01T04:59:05;2.20;;;0.60;;
33104;SDS011;19476;51.448;6.674;2023-04-01T05:01:31;0.98;;;0.30;;
33104;SDS011;19476;51.448;6.674;2023-04-01T05:03:58;0.80;;;0.38;;
33104;SDS011;19476;51.448;6.674;2023-04-01T05:06:26;0.93;;;0.60;;
33104;SDS011;19476;51.448;6.674;2023-04-01T05:08:54;0.73;;;0.50;;
33104;SDS011;19476;51.448;6.674;2023-04-01T05:11:21;2.10;;;0.90;;
33104;SDS011;19476;51.448;6.674;2023-04-01T05:13:47;1.55;;;0.70;;
33104;SDS011;19476;51.448;6.674;2023-04-01T05:16:17;1.33;;;0.40;;
33104;SDS011;19476;51.448;6.674;2023-04-01T05:18:44;1.25;;;0.50;;
33104;SDS011;19476;51.448;6.674;2023-04-01T05:21:12;0.60;;;0.40;;
33104;SDS011;19476;51.448;6.674;2023-04-01T05:23:39;1.80;;;0.93;;
33104;SDS011;19476;51.448;6.674;2023-04-01T05:26:06;0.63;;;0.47;;
33104;SDS011;19476;51.448;6.674;2023-04-01T05:28:33;0.70;;;0.50;;
33104;SDS011;19476;51.448;6.674;2023-04-01T05:30:59;0.80;;;0.60;;
33104;SDS011;19476;51.448;6.674;2023-04-01T05:33:26;1.10;;;0.75;;
33104;SDS011;19476;51.448;6.674;2023-04-01T05:35:52;2.25;;;0.75;;
33104;SDS011;19476;51.448;6.674;2023-04-01T05:38:19;1.10;;;0.73;;
33104;SDS011;19476;51.448;6.674;2023-04-01T05:40:45;2.10;;;1.00;;
33104;SDS011;19476;51.448;6.674;2023-04-01T05:43:10;3.53;;;1.42;;
33104;SDS011;19476;51.448;6.674;2023-04-01T05:45:36;1.80;;;1.15;;
33104;SDS011;19476;51.448;6.674;2023-04-01T05:48:02;3.08;;;1.10;;
33104;SDS011;19476;51.448;6.674;2023-04-01T05:50:28;1.17;;;0.90;;
33104;SDS011;19476;51.448;6.674;2023-04-01T05:52:54;2.35;;;1.10;;
33104;SDS011;19476;51.448;6.674;2023-04-01T05:55:20;3.53;;;1.30;;
33104;SDS011;19476;51.448;6.674;2023-04-01T05:57:46;3.40;;;1.08;;
33104;SDS011;19476;51.448;6.674;2023-04-01T06:00:15;1.25;;;0.85;;
33104;SDS011;19476;51.448;6.674;2023-04-01T06:02:42;2.22;;;0.90;;
33104;SDS011;19476;51.448;6.674;2023-04-01T06:07:42;1.83;;;0.80;;
33104;SDS011;19476;51.448;6.674;2023-04-01T06:10:15;2.75;;;1.00;;
33104;SDS011;19476;51.448;6.674;2023-04-01T06:12:48;1.00;;;0.90;;
33104;SDS011;19476;51.448;6.674;2023-04-01T06:21:08;1.98;;;1.10;;
33104;SDS011;19476;51.448;6.674;2023-04-01T06:26:25;1.05;;;0.80;;
33104;SDS011;19476;51.448;6.674;2023-04-01T06:35:35;1.40;;;1.00;;
33104;SDS011;19476;51.448;6.674;2023-04-01T06:38:48;2.00;;;1.10;;
33104;SDS011;19476;51.448;6.674;2023-04-01T06:44:23;2.47;;;1.10;;
33104;SDS011;19476;51.448;6.674;2023-04-01T06:47:11;1.42;;;1.00;;
33104;SDS011;19476;51.448;6.674;2023-04-01T06:55:51;1.55;;;0.90;;
33104;SDS011;19476;51.448;6.674;2023-04-01T06:58:59;1.98;;;1.35;;
33104;SDS011;19476;51.448;6.674;2023-04-01T07:01:37;1.67;;;1.10;;
33104;SDS011;19476;51.448;6.674;2023-04-01T07:07:05;1.30;;;1.02;;
33104;SDS011;19476;51.448;6.674;2023-04-01T07:09:55;1.70;;;1.23;;
33104;SDS011;19476;51.448;6.674;2023-04-01T07:15:01;2.35;;;1.67;;
33104;SDS011;19476;51.448;6.674;2023-04-01T07:17:38;1.95;;;1.40;;
33104;SDS011;19476;51.448;6.674;2023-04-01T07:22:54;2.38;;;1.42;;
33104;SDS011;19476;51.448;6.674;2023-04-01T07:25:31;2.38;;;1.50;;
33104;SDS011;19476;51.448;6.674;2023-04-01T07:28:14;3.30;;;1.42;;
33104;SDS011;19476;51.448;6.674;2023-04-01T07:30:58;2.03;;;1.40;;
33104;SDS011;19476;51.448;6.674;2023-04-01T07:36:48;2.25;;;1.38;;
33104;SDS011;19476;51.448;6.674;2023-04-01T07:39:53;2.00;;;1.45;;
33104;SDS011;19476;51.448;6.674;2023-04-01T07:42:49;2.20;;;1.60;;
33104;SDS011;19476;51.448;6.674;2023-04-01T07:48:17;2.55;;;1.73;;
33104;SDS011;19476;51.448;6.674;2023-04-01T08:07:38;2.85;;;1.70;;
33104;SDS011;19476;51.448;6.674;2023-04-01T08:10:28;3.30;;;1.92;;
33104;SDS011;19476;51.448;6.674;2023-04-01T08:13:07;2.22;;;1.38;;
33104;SDS011;19476;51.448;6.674;2023-04-01T08:21:31;2.83;;;1.40;;
33104;SDS011;19476;51.448;6.674;2023-04-01T08:23:54;2.67;;;1.52;;
33104;SDS011;19476;51.448;6.674;2023-04-01T08:32:49;2.47;;;1.50;;
33104;SDS011;19476;51.448;6.674;2023-04-01T08:34:47;2.05;;;1.35;;
33104;SDS011;19476;51.448;6.674;2023-04-01T08:37:24;2.20;;;1.48;;
33104;SDS011;19476;51.448;6.674;2023-04-01T08:40:00;2.30;;;1.50;;
33104;SDS011;19476;51.448;6.674;2023-04-01T08:56:06;2.72;;;1.85;;
33104;SDS011;19476;51.448;6.674;2023-04-01T09:01:46;3.85;;;2.20;;
33104;SDS011;19476;51.448;6.674;2023-04-01T09:07:56;3.85;;;2.25;;
33104;SDS011;19476;51.448;6.674;2023-04-01T09:32:33;4.03;;;2.60;;
33104;SDS011;19476;51.448;6.674;2023-04-01T09:35:22;4.60;;;2.90;;
33104;SDS011;19476;51.448;6.674;2023-04-01T09:38:21;4.15;;;2.63;;
33104;SDS011;19476;51.448;6.674;2023-04-01T09:53:48;5.15;;;2.97;;
33104;SDS011;19476;51.448;6.674;2023-04-01T10:18:41;5.65;;;3.17;;
33104;SDS011;19476;51.448;6.674;2023-04-01T10:32:45;5.93;;;3.17;;
33104;SDS011;19476;51.448;6.674;2023-04-01T10:50:06;5.85;;;3.40;;
33104;SDS011;19476;51.448;6.674;2023-04-01T10:58:18;6.30;;;3.70;;
33104;SDS011;19476;51.448;6.674;2023-04-01T11:01:16;5.75;;;3.90;;
33104;SDS011;19476;51.448;6.674;2023-04-01T11:12:31;6.65;;;3.92;;
33104;SDS011;19476;51.448;6.674;2023-04-01T11:26:52;6.70;;;3.78;;
33104;SDS011;19476;51.448;6.674;2023-04-01T11:32:27;7.47;;;4.35;;
33104;SDS011;19476;51.448;6.674;2023-04-01T11:40:47;5.72;;;3.33;;
33104;SDS011;19476;51.448;6.674;2023-04-01T11:49:24;4.85;;;3.20;;
33104;SDS011;19476;51.448;6.674;2023-04-01T12:11:53;4.05;;;2.72;;
33104;SDS011;19476;51.448;6.674;2023-04-01T12:25:05;4.18;;;2.53;;
33104;SDS011;19476;51.448;6.674;2023-04-01T12:35:48;4.38;;;3.00;;
33104;SDS011;19476;51.448;6.674;2023-04-01T12:41:27;6.57;;;3.22;;
33104;SDS011;19476;51.448;6.674;2023-04-01T12:55:43;5.40;;;3.40;;
33104;SDS011;19476;51.448;6.674;2023-04-01T13:12:46;4.95;;;3.13;;
33104;SDS011;19476;51.448;6.674;2023-04-01T13:15:34;7.50;;;3.60;;
33104;SDS011;19476;51.448;6.674;2023-04-01T13:26:08;5.93;;;3.60;;
33104;SDS011;19476;51.448;6.674;2023-04-01T13:28:45;5.55;;;3.08;;
33104;SDS011;19476;51.448;6.674;2023-04-01T13:34:29;6.47;;;3.90;;
33104;SDS011;19476;51.448;6.674;2023-04-01T13:42:28;6.05;;;3.50;;
33104;SDS011;19476;51.448;6.674;2023-04-01T13:47:55;8.13;;;4.72;;
33104;SDS011;19476;51.448;6.674;2023-04-01T13:53:23;5.43;;;3.60;;
33104;SDS011;19476;51.448;6.674;2023-04-01T13:58:54;6.10;;;3.30;;
33104;SDS011;19476;51.448;6.674;2023-04-01T14:01:42;5.50;;;2.70;;
33104;SDS011;19476;51.448;6.674;2023-04-01T14:13:59;4.65;;;2.55;;
33104;SDS011;19476;51.448;6.674;2023-04-01T14:16:01;6.40;;;2.95;;
33104;SDS011;19476;51.448;6.674;2023-04-01T14:21:38;3.50;;;2.30;;
33104;SDS011;19476;51.448;6.674;2023-04-01T15:24:24;3.13;;;1.83;;
33104;SDS011;19476;51.448;6.674;2023-04-01T15:26:55;3.00;;;2.00;;
33104;SDS011;19476;51.448;6.674;2023-04-01T15:41:15;2.75;;;1.67;;
33104;SDS011;19476;51.448;6.674;2023-04-01T15:44:26;2.75;;;1.60;;
33104;SDS011;19476;51.448;6.674;2023-04-01T15:55:26;2.22;;;1.40;;
33104;SDS011;19476;51.448;6.674;2023-04-01T16:00:28;3.05;;;1.83;;
33104;SDS011;19476;51.448;6.674;2023-04-01T16:08:54;3.53;;;2.03;;
33104;SDS011;19476;51.448;6.674;2023-04-01T16:19:59;3.20;;;1.80;;
33104;SDS011;19476;51.448;6.674;2023-04-01T16:25:20;2.22;;;1.40;;
33104;SDS011;19476;51.448;6.674;2023-04-01T16:31:14;3.42;;;1.85;;
33104;SDS011;19476;51.448;6.674;2023-04-01T16:36:48;4.70;;;1.85;;
33104;SDS011;19476;51.448;6.674;2023-04-01T16:47:53;3.45;;;1.67;;
33104;SDS011;19476;51.448;6.674;2023-04-01T16:56:36;3.58;;;2.35;;
33104;SDS011;19476;51.448;6.674;2023-04-01T17:07:00;3.90;;;2.40;;
33104;SDS011;19476;51.448;6.674;2023-04-01T17:12:24;4.45;;;2.92;;
33104;SDS011;19476;51.448;6.674;2023-04-01T17:26:23;3.60;;;2.83;;
33104;SDS011;19476;51.448;6.674;2023-04-01T17:31:40;4.95;;;3.00;;
33104;SDS011;19476;51.448;6.674;2023-04-01T17:34:30;5.32;;;3.17;;
33104;SDS011;19476;51.448;6.674;2023-04-01T17:40:07;3.85;;;2.60;;
33104;SDS011;19476;51.448;6.674;2023-04-01T17:42:58;5.22;;;3.35;;
33104;SDS011;19476;51.448;6.674;2023-04-01T17:45:32;6.45;;;3.50;;
33104;SDS011;19476;51.448;6.674;2023-04-01T17:48:25;4.22;;;2.83;;
33104;SDS011;19476;51.448;6.674;2023-04-01T17:56:49;4.20;;;2.70;;
33104;SDS011;19476;51.448;6.674;2023-04-01T17:59:39;3.65;;;2.63;;
33104;SDS011;19476;51.448;6.674;2023-04-01T18:02:24;6.18;;;3.65;;
33104;SDS011;19476;51.448;6.674;2023-04-01T18:05:13;4.80;;;3.30;;
33104;SDS011;19476;51.448;6.674;2023-04-01T18:16:12;5.22;;;3.25;;
33104;SDS011;19476;51.448;6.674;2023-04-01T18:19:09;4.82;;;3.35;;
33104;SDS011;19476;51.448;6.674;2023-04-01T18:22:07;6.28;;;4.00;;
33104;SDS011;19476;51.448;6.674;2023-04-01T18:25:01;5.28;;;3.50;;
33104;SDS011;19476;51.448;6.674;2023-04-01T18:28:11;5.25;;;3.33;;
33104;SDS011;19476;51.448;6.674;2023-04-01T18:30:41;6.35;;;3.70;;
33104;SDS011;19476;51.448;6.674;2023-04-01T18:36:12;5.72;;;3.80;;
33104;SDS011;19476;51.448;6.674;2023-04-01T18:38:54;5.65;;;3.88;;
33104;SDS011;19476;51.448;6.674;2023-04-01T18:41:30;6.55;;;4.35;;
33104;SDS011;19476;51.448;6.674;2023-04-01T18:44:38;6.18;;;4.13;;
33104;SDS011;19476;51.448;6.674;2023-04-01T18:57:49;6.70;;;3.85;;
33104;SDS011;19476;51.448;6.674;2023-04-01T19:00:38;7.45;;;4.53;;
33104;SDS011;19476;51.448;6.674;2023-04-01T19:06:18;4.38;;;2.72;;
33104;SDS011;19476;51.448;6.674;2023-04-01T19:08:55;3.42;;;2.10;;
33104;SDS011;19476;51.448;6.674;2023-04-01T19:11:43;2.55;;;1.50;;
33104;SDS011;19476;51.448;6.674;2023-04-01T19:17:27;1.60;;;1.20;;
33104;SDS011;19476;51.448;6.674;2023-04-01T19:19:54;2.42;;;1.40;;
33104;SDS011;19476;51.448;6.674;2023-04-01T19:25:35;1.67;;;1.00;;
33104;SDS011;19476;51.448;6.674;2023-04-01T19:28:26;1.83;;;0.88;;
33104;SDS011;19476;51.448;6.674;2023-04-01T19:31:13;2.03;;;0.93;;
33104;SDS011;19476;51.448;6.674;2023-04-01T19:34:05;0.85;;;0.60;;
33104;SDS011;19476;51.448;6.674;2023-04-01T19:39:33;0.80;;;0.70;;
33104;SDS011;19476;51.448;6.674;2023-04-01T19:44:58;0.60;;;0.50;;
33104;SDS011;19476;51.448;6.674;2023-04-01T19:50:30;1.13;;;0.60;;
33104;SDS011;19476;51.448;6.674;2023-04-01T19:53:46;1.73;;;0.73;;
33104;SDS011;19476;51.448;6.674;2023-04-01T20:04:27;0.80;;;0.57;;
33104;SDS011;19476;51.448;6.674;2023-04-01T20:09:40;1.88;;;0.77;;
33104;SDS011;19476;51.448;6.674;2023-04-01T20:12:32;0.98;;;0.47;;
33104;SDS011;19476;51.448;6.674;2023-04-01T20:18:33;0.75;;;0.50;;
33104;SDS011;19476;51.448;6.674;2023-04-01T20:21:05;1.02;;;0.70;;
33104;SDS011;19476;51.448;6.674;2023-04-01T20:23:49;1.02;;;0.68;;
33104;SDS011;19476;51.448;6.674;2023-04-01T20:26:42;1.17;;;0.57;;
33104;SDS011;19476;51.448;6.674;2023-04-01T20:32:06;1.38;;;0.77;;
33104;SDS011;19476;51.448;6.674;2023-04-01T20:37:58;1.13;;;0.90;;
33104;SDS011;19476;51.448;6.674;2023-04-01T20:41:02;1.45;;;0.90;;
33104;SDS011;19476;51.448;6.674;2023-04-01T20:46:16;1.17;;;0.80;;
33104;SDS011;19476;51.448;6.674;2023-04-01T20:52:17;1.27;;;0.80;;
33104;SDS011;19476;51.448;6.674;2023-04-01T20:55:13;1.10;;;0.80;;
33104;SDS011;19476;51.448;6.674;2023-04-01T21:03:03;1.83;;;1.15;;
33104;SDS011;19476;51.448;6.674;2023-04-01T21:11:33;2.55;;;1.35;;
33104;SDS011;19476;51.448;6.674;2023-04-01T21:30:49;0.77;;;0.70;;
33104;SDS011;19476;51.448;6.674;2023-04-01T21:44:58;0.98;;;0.70;;
33104;SDS011;19476;51.448;6.674;2023-04-01T21:53:19;1.20;;;0.73;;
33104;SDS011;19476;51.448;6.674;2023-04-01T22:01:43;1.48;;;0.85;;
33104;SDS011;19476;51.448;6.674;2023-04-01T22:04:18;1.38;;;0.80;;
33104;SDS011;19476;51.448;6.674;2023-04-01T22:07:15;1.33;;;0.90;;
33104;SDS011;19476;51.448;6.674;2023-04-01T22:09:48;1.80;;;0.90;;
33104;SDS011;19476;51.448;6.674;2023-04-01T22:12:40;2.38;;;1.15;;
33104;SDS011;19476;51.448;6.674;2023-04-01T22:21:07;1.70;;;1.10;;
33104;SDS011;19476;51.448;6.674;2023-04-01T22:23:49;1.73;;;1.00;;
33104;SDS011;19476;51.448;6.674;2023-04-01T22:26:42;2.97;;;1.52;;
33104;SDS011;19476;51.448;6.674;2023-04-01T22:32:16;3.85;;;1.83;;
33104;SDS011;19476;51.448;6.674;2023-04-01T22:40:25;2.15;;;1.30;;
33104;SDS011;19476;51.448;6.674;2023-04-01T22:42:56;3.35;;;1.65;;
33104;SDS011;19476;51.448;6.674;2023-04-01T22:48:19;1.77;;;1.10;;
33104;SDS011;19476;51.448;6.674;2023-04-01T22:51:07;2.05;;;1.05;;
33104;SDS011;19476;51.448;6.674;2023-04-01T22:53:57;3.13;;;1.15;;
33104;SDS011;19476;51.448;6.674;2023-04-01T22:56:27;5.07;;;2.03;;
33104;SDS011;19476;51.448;6.674;2023-04-01T22:59:08;5.45;;;2.40;;
33104;SDS011;19476;51.448;6.674;2023-04-01T23:02:15;5.15;;;2.03;;
33104;SDS011;19476;51.448;6.674;2023-04-01T23:04:39;4.20;;;2.42;;
33104;SDS011;19476;51.448;6.674;2023-04-01T23:10:28;2.33;;;1.50;;
33104;SDS011;19476;51.448;6.674;2023-04-01T23:13:16;2.05;;;0.93;;
33104;SDS011;19476;51.448;6.674;2023-04-01T23:15:57;3.30;;;1.58;;
33104;SDS011;19476;51.448;6.674;2023-04-01T23:18:37;3.38;;;1.60;;
33104;SDS011;19476;51.448;6.674;2023-04-01T23:30:46;1.85;;;1.02;;
33104;SDS011;19476;51.448;6.674;2023-04-01T23:36:47;4.43;;;2.15;;
33104;SDS011;19476;51.448;6.674;2023-04-01T23:39:40;2.97;;;1.85;;
